Arcadia, North Carolina
Current Conditions -  °F | °C
As of 7:15 PM on Tuesday 25 Nov 2014 (Local Time) from KEXX Reporting Station
Overcast Overcast  
Wind Chill: 12°   Ceiling: 3400
Heat Index: 12°   Visibility: 10mi
Dew Point:   Wind: 0mph
Humidity: 55%   Direction: NA
Pressure: 30.07"   Gusts: NA
Location:  35.7974°N, 80.2541°W
Report Text: KEXX 260015Z AUTO 00000KT 10SM BKN034 OVC100 12/04 A3007 RMK AO2 T01220035
Loading
Personal Weather Stations






























Interactive Weather Map New forecast layout! Learn more

10-Day Weather Forecast

Advertisements
Track Severe Weather on mobile